createdAt,value
2023-01-26T00:01:30.325Z,101051.19
2023-01-26T00:03:57.974Z,101044.31
2023-01-26T00:06:25.928Z,101039.19
2023-01-26T00:08:59.163Z,101045.03
2023-01-26T00:11:27.932Z,101041.25
2023-01-26T00:14:00.198Z,101032.25
2023-01-26T00:16:28.362Z,101041.38
2023-01-26T00:18:55.577Z,101042.34
2023-01-26T00:21:24.319Z,101034.81
2023-01-26T00:23:52.788Z,101033.22
2023-01-26T00:26:26.779Z,101036.13
2023-01-26T00:28:54.331Z,101025.91
2023-01-26T00:31:27.483Z,101026.44
2023-01-26T00:33:56.291Z,101024.34
2023-01-26T00:36:23.960Z,101019.88
2023-01-26T00:38:50.931Z,101017.94
2023-01-26T00:41:36.061Z,101012.19
2023-01-26T00:44:03.094Z,101013.22
2023-01-26T00:46:30.296Z,101009.44
2023-01-26T00:48:57.264Z,101022.13
2023-01-26T00:51:24.274Z,101002.13
2023-01-26T00:53:51.230Z,100999.31
2023-01-26T00:56:18.298Z,100999.31
2023-01-26T00:58:45.727Z,100997.47
2023-01-26T01:01:12.814Z,100988.31
2023-01-26T01:03:39.730Z,100990.75
2023-01-26T01:06:06.626Z,100998.00
2023-01-26T01:08:33.523Z,100995.03
2023-01-26T01:11:10.004Z,100995.09
2023-01-26T01:13:37.785Z,100983.13
2023-01-26T01:16:14.225Z,100985.41
2023-01-26T01:18:41.336Z,100990.16
2023-01-26T01:21:16.882Z,100996.03
2023-01-26T01:23:44.555Z,100982.50
2023-01-26T01:26:12.478Z,100977.50
2023-01-26T01:28:40.029Z,100972.88
2023-01-26T01:31:10.934Z,100974.31
2023-01-26T01:33:38.106Z,100978.09
2023-01-26T01:36:12.283Z,100983.44
2023-01-26T01:38:39.209Z,100994.06
2023-01-26T01:41:07.396Z,100983.63
2023-01-26T01:43:34.821Z,100982.53
2023-01-26T01:46:13.672Z,100979.59
2023-01-26T01:48:57.779Z,100975.72
2023-01-26T01:51:36.688Z,100982.75
2023-01-26T01:54:10.735Z,100986.34
2023-01-26T01:56:43.560Z,100980.44
2023-01-26T01:59:13.037Z,100990.19
2023-01-26T02:01:40.308Z,100990.31
2023-01-26T02:04:08.315Z,100991.47
2023-01-26T02:06:46.673Z,100987.53
2023-01-26T02:09:34.334Z,100993.53
2023-01-26T02:12:05.215Z,100986.53
2023-01-26T02:14:33.696Z,100980.91
2023-01-26T02:17:00.839Z,100975.22
2023-01-26T02:20:02.759Z,100986.34
2023-01-26T02:23:10.096Z,100986.84
2023-01-26T02:25:52.828Z,100982.50
2023-01-26T02:28:24.889Z,100984.44
2023-01-26T02:30:54.042Z,100977.75
2023-01-26T02:33:28.278Z,100979.94
2023-01-26T02:35:55.407Z,100980.56
2023-01-26T02:38:26.308Z,100975.22
2023-01-26T02:41:07.228Z,100966.03
2023-01-26T02:43:34.248Z,100970.47
2023-01-26T02:46:01.176Z,100968.50
2023-01-26T02:48:46.632Z,100970.34
2023-01-26T02:51:13.635Z,100961.00
2023-01-26T02:53:40.631Z,100959.53
2023-01-26T02:56:07.723Z,100964.06
2023-01-26T02:58:35.097Z,100956.44
2023-01-26T03:01:02.059Z,100957.19
2023-01-26T03:03:41.655Z,100960.31
2023-01-26T03:06:13.237Z,100963.03
2023-01-26T03:08:40.237Z,100959.03
2023-01-26T03:11:08.962Z,100958.19
2023-01-26T03:13:36.060Z,100957.31
2023-01-26T03:16:08.237Z,100951.78
2023-01-26T03:18:54.843Z,100954.72
2023-01-26T03:21:40.801Z,100951.25
2023-01-26T03:24:31.254Z,100947.09
2023-01-26T03:27:16.713Z,100950.63
2023-01-26T03:29:43.677Z,100952.06
2023-01-26T03:32:11.004Z,100947.16
2023-01-26T03:34:38.064Z,100945.91
2023-01-26T03:37:05.485Z,100950.88
2023-01-26T03:39:51.214Z,100939.56
2023-01-26T03:42:36.514Z,100936.09
2023-01-26T03:45:23.423Z,100932.09
2023-01-26T03:48:09.202Z,100935.66
2023-01-26T03:50:54.857Z,100939.63
2023-01-26T03:53:42.994Z,100935.16
2023-01-26T03:56:22.856Z,100933.63
2023-01-26T03:58:53.344Z,100930.44
2023-01-26T04:01:27.853Z,100934.25
2023-01-26T04:04:15.685Z,100930.78
2023-01-26T04:07:03.645Z,100930.44
2023-01-26T04:09:31.432Z,100933.41
2023-01-26T04:11:58.576Z,100928.03
2023-01-26T04:14:49.677Z,100923.25
2023-01-26T04:17:37.714Z,100917.59
2023-01-26T04:20:25.464Z,100925.34
2023-01-26T04:22:52.708Z,100922.97
2023-01-26T04:25:22.122Z,100913.09
2023-01-26T04:27:49.110Z,100911.44
2023-01-26T04:30:17.414Z,100917.50
2023-01-26T04:32:46.272Z,100916.00
2023-01-26T04:35:13.725Z,100908.47
2023-01-26T04:37:40.696Z,100905.56
2023-01-26T04:40:09.084Z,100898.47
2023-01-26T04:42:36.150Z,100909.78
2023-01-26T04:45:03.377Z,100901.75
2023-01-26T04:47:30.255Z,100900.78
2023-01-26T04:49:58.079Z,100906.69
2023-01-26T04:52:25.112Z,100904.03
2023-01-26T04:54:52.039Z,100892.22
2023-01-26T04:57:21.159Z,100892.91
2023-01-26T04:59:48.136Z,100890.97
2023-01-26T05:02:15.104Z,100887.19
2023-01-26T05:04:42.062Z,100878.25
2023-01-26T05:07:08.996Z,100885.03
2023-01-26T05:09:35.854Z,100883.88
2023-01-26T05:12:22.832Z,100887.78
2023-01-26T05:14:49.680Z,100874.72
2023-01-26T05:17:16.583Z,100870.94
2023-01-26T05:19:43.480Z,100876.47
2023-01-26T05:22:12.411Z,100880.94
2023-01-26T05:24:39.502Z,100882.63
2023-01-26T05:27:21.313Z,100886.41
2023-01-26T05:29:50.118Z,100884.34
2023-01-26T05:32:17.852Z,100872.31
2023-01-26T05:34:45.425Z,100878.66
2023-01-26T05:37:14.635Z,100870.25
2023-01-26T05:39:42.103Z,100877.94
2023-01-26T05:42:09.134Z,100880.06
2023-01-26T05:44:36.144Z,100874.69
2023-01-26T05:47:03.224Z,100879.31
2023-01-26T05:49:30.634Z,100883.44
2023-01-26T05:51:58.220Z,100886.50
2023-01-26T05:54:25.298Z,100886.78
2023-01-26T05:56:53.379Z,100889.06
2023-01-26T05:59:20.370Z,100880.22
2023-01-26T06:01:47.314Z,100884.72
2023-01-26T06:04:14.282Z,100884.78
2023-01-26T06:06:41.207Z,100885.88
2023-01-26T06:09:08.069Z,100885.38
2023-01-26T06:11:35.006Z,100888.06
2023-01-26T06:14:02.073Z,100883.59
2023-01-26T06:16:29.171Z,100882.38
2023-01-26T06:18:56.119Z,100879.16
2023-01-26T06:21:24.128Z,100876.44
2023-01-26T06:23:51.204Z,100877.31
2023-01-26T06:26:18.158Z,100881.41
2023-01-26T06:28:45.046Z,100876.50
2023-01-26T06:31:12.137Z,100883.16
2023-01-26T06:33:39.242Z,100880.41
2023-01-26T06:36:12.434Z,100891.19
2023-01-26T06:38:45.682Z,100899.97
2023-01-26T06:41:12.601Z,100897.56
2023-01-26T06:43:39.462Z,100905.97
2023-01-26T06:46:07.089Z,100896.72
2023-01-26T06:48:35.362Z,100906.91
2023-01-26T06:51:20.164Z,100911.31
2023-01-26T06:53:57.959Z,100909.84
2023-01-26T06:56:27.943Z,100907.34
2023-01-26T06:58:55.296Z,100915.13
2023-01-26T07:01:26.737Z,100910.97
2023-01-26T07:03:55.142Z,100915.03
2023-01-26T07:06:22.051Z,100913.28
2023-01-26T07:08:49.029Z,100916.28
2023-01-26T07:11:17.331Z,100919.25
2023-01-26T07:13:44.286Z,100914.88
2023-01-26T07:16:14.636Z,100913.09
2023-01-26T07:18:42.206Z,100915.13
2023-01-26T07:21:20.533Z,100914.41
2023-01-26T07:23:47.708Z,100912.81
2023-01-26T07:26:14.994Z,100914.41
2023-01-26T07:28:41.917Z,100917.03
2023-01-26T07:31:11.575Z,100918.69
2023-01-26T07:33:38.688Z,100915.31
2023-01-26T07:36:05.847Z,100909.81
2023-01-26T07:38:34.180Z,100904.69
2023-01-26T07:41:07.708Z,100907.63
2023-01-26T07:43:36.652Z,100906.16
2023-01-26T07:46:04.743Z,100908.31
2023-01-26T07:48:34.360Z,100907.63
2023-01-26T07:51:03.752Z,100910.06
2023-01-26T07:53:34.040Z,100912.91
2023-01-26T07:56:11.929Z,100920.84
2023-01-26T07:58:39.547Z,100925.06
2023-01-26T08:01:13.629Z,100914.75
2023-01-26T08:03:41.801Z,100926.16
2023-01-26T08:06:11.910Z,100935.00
2023-01-26T08:08:41.517Z,100931.69
2023-01-26T08:11:10.740Z,100926.59
2023-01-26T08:13:38.572Z,100924.38
2023-01-26T08:16:12.012Z,100911.72
2023-01-26T08:18:42.088Z,100902.94
2023-01-26T08:21:10.375Z,100916.06
2023-01-26T08:23:37.539Z,100915.38
2023-01-26T08:26:10.215Z,100922.53
2023-01-26T08:28:37.207Z,100922.09
2023-01-26T08:31:06.974Z,100929.88
2023-01-26T08:33:35.021Z,100928.44
2023-01-26T08:36:07.927Z,100927.81
2023-01-26T08:38:35.189Z,100932.31
2023-01-26T08:41:03.683Z,100931.13
2023-01-26T08:43:30.946Z,100927.06
2023-01-26T08:45:58.428Z,100941.03
2023-01-26T08:48:25.856Z,100939.38
2023-01-26T08:50:58.813Z,100936.47
2023-01-26T08:53:29.667Z,100936.69
2023-01-26T08:55:56.681Z,100934.19
2023-01-26T08:58:23.547Z,100934.72
2023-01-26T09:00:50.709Z,100937.06
2023-01-26T09:03:18.008Z,100937.13
2023-01-26T09:05:44.923Z,100935.72
2023-01-26T09:08:14.268Z,100939.63
2023-01-26T09:10:45.187Z,100930.28
2023-01-26T09:13:12.224Z,100931.94
2023-01-26T09:15:39.411Z,100929.41
2023-01-26T09:18:06.668Z,100932.84
2023-01-26T09:20:34.807Z,100926.19
2023-01-26T09:23:01.828Z,100932.69
2023-01-26T09:25:28.828Z,100926.56
2023-01-26T09:27:55.879Z,100929.16
2023-01-26T09:30:24.930Z,100939.38
2023-01-26T09:32:53.258Z,100947.63
2023-01-26T09:35:20.152Z,100944.75
2023-01-26T09:37:47.090Z,100943.22
2023-01-26T09:40:37.935Z,100938.59
2023-01-26T09:43:41.669Z,100945.78
2023-01-26T09:46:52.046Z,100947.66
2023-01-26T09:49:42.844Z,100956.38
2023-01-26T09:52:41.984Z,100955.97
2023-01-26T09:55:17.822Z,100959.41
2023-01-26T09:57:51.295Z,100955.91
2023-01-26T10:00:39.579Z,100952.56
2023-01-26T10:03:23.122Z,100953.44
2023-01-26T10:06:00.216Z,100955.31
2023-01-26T10:08:27.899Z,100950.03
2023-01-26T10:11:01.595Z,100954.22
2023-01-26T10:13:30.557Z,100948.38
2023-01-26T10:16:07.510Z,100959.56
2023-01-26T10:19:02.007Z,100950.81
2023-01-26T10:21:39.209Z,100950.44
2023-01-26T10:24:10.043Z,100952.03
2023-01-26T10:26:37.375Z,100945.81
2023-01-26T10:29:04.503Z,100943.31
2023-01-26T10:31:34.189Z,100920.91
2023-01-26T10:34:13.737Z,100923.69
2023-01-26T10:36:43.633Z,100925.78
2023-01-26T10:39:15.697Z,100927.66
2023-01-26T10:42:01.311Z,100920.53
2023-01-26T10:44:35.626Z,100924.56
2023-01-26T10:47:17.326Z,100923.94
2023-01-26T10:49:44.516Z,100920.50
2023-01-26T10:52:21.600Z,100914.88
2023-01-26T10:54:52.657Z,100907.84
2023-01-26T10:57:32.515Z,100906.69
2023-01-26T11:00:20.323Z,100913.44
2023-01-26T11:02:53.917Z,100911.69
2023-01-26T11:05:25.691Z,100909.13
2023-01-26T11:08:00.383Z,100894.56
2023-01-26T11:10:39.268Z,100899.13
2023-01-26T11:13:20.932Z,100890.63
2023-01-26T11:15:53.047Z,100889.00
2023-01-26T11:18:54.673Z,100889.59
2023-01-26T11:21:39.160Z,100888.81
2023-01-26T11:24:25.951Z,100878.47
2023-01-26T11:27:17.943Z,100876.31
2023-01-26T11:30:12.204Z,100877.97
2023-01-26T11:32:49.880Z,100875.72
2023-01-26T11:35:44.729Z,100876.50
2023-01-26T11:38:41.935Z,100873.53
2023-01-26T11:41:27.188Z,100863.91
2023-01-26T11:44:23.241Z,100855.09
2023-01-26T11:47:20.984Z,100845.16
2023-01-26T11:50:24.769Z,100832.88
2023-01-26T11:53:01.171Z,100840.97
2023-01-26T11:55:54.863Z,100838.31
2023-01-26T11:58:45.354Z,100836.19
2023-01-26T12:01:28.740Z,100820.91
2023-01-26T12:03:56.821Z,100822.22
2023-01-26T12:06:43.604Z,100824.22
2023-01-26T12:09:42.673Z,100815.22
2023-01-26T12:12:23.900Z,100806.81
2023-01-26T12:15:15.552Z,100801.59
2023-01-26T12:18:04.279Z,100801.69
2023-01-26T12:20:48.932Z,100797.78
2023-01-26T12:23:29.807Z,100789.72
2023-01-26T12:26:03.832Z,100795.72
2023-01-26T12:28:45.819Z,100798.81
2023-01-26T12:31:33.429Z,100795.22
2023-01-26T12:34:00.409Z,100786.19
2023-01-26T12:37:02.251Z,100783.84
2023-01-26T12:39:41.533Z,100792.28
2023-01-26T12:42:27.381Z,100780.06
2023-01-26T12:45:00.201Z,100766.56
2023-01-26T12:47:55.717Z,100763.00
2023-01-26T12:50:39.961Z,100760.59
2023-01-26T12:53:31.455Z,100765.28
2023-01-26T12:56:21.922Z,100757.97
2023-01-26T12:58:51.702Z,100753.00
2023-01-26T13:01:23.031Z,100761.56
2023-01-26T13:03:58.078Z,100753.38
2023-01-26T13:06:29.334Z,100761.97
2023-01-26T13:09:25.527Z,100755.19
2023-01-26T13:11:59.861Z,100761.34
2023-01-26T13:14:49.917Z,100770.25
2023-01-26T13:17:16.830Z,100767.44
2023-01-26T13:19:43.633Z,100769.25
2023-01-26T13:22:19.434Z,100784.66
2023-01-26T13:24:49.145Z,100791.00
2023-01-26T13:27:33.193Z,100786.00
2023-01-26T13:30:00.972Z,100797.84
2023-01-26T13:32:27.845Z,100792.41
2023-01-26T13:34:57.848Z,100799.31
2023-01-26T13:37:59.800Z,100789.09
2023-01-26T13:40:37.033Z,100784.50
2023-01-26T13:43:27.521Z,100792.28
2023-01-26T13:46:40.010Z,100787.13
2023-01-26T13:49:34.064Z,100780.91
2023-01-26T13:52:01.126Z,100794.97
2023-01-26T13:54:28.175Z,100771.88
2023-01-26T13:57:07.281Z,100768.78
2023-01-26T13:59:34.409Z,100769.63
2023-01-26T14:02:01.612Z,100765.94
2023-01-26T14:04:31.867Z,100791.50
2023-01-26T14:07:05.112Z,100781.88
2023-01-26T14:09:41.122Z,100785.78
2023-01-26T14:12:18.013Z,100796.31
2023-01-26T14:14:48.145Z,100803.22
2023-01-26T14:17:46.428Z,100793.00
2023-01-26T14:20:30.343Z,100808.59
2023-01-26T14:23:18.823Z,100794.78
2023-01-26T14:26:05.710Z,100809.44
2023-01-26T14:28:37.777Z,100812.47
2023-01-26T14:31:16.975Z,100802.69
2023-01-26T14:33:44.444Z,100807.75
2023-01-26T14:36:16.980Z,100803.97
2023-01-26T14:38:50.353Z,100813.06
2023-01-26T14:41:24.640Z,100806.41
2023-01-26T14:43:57.873Z,100811.47
2023-01-26T14:46:57.542Z,100817.28
2023-01-26T14:49:47.394Z,100820.22
2023-01-26T14:52:30.747Z,100823.06
2023-01-26T14:55:06.331Z,100838.81
2023-01-26T14:57:33.654Z,100829.72
2023-01-26T15:00:06.803Z,100830.25
2023-01-26T15:02:49.152Z,100849.53
2023-01-26T15:05:20.868Z,100841.91
2023-01-26T15:07:59.951Z,100841.22
2023-01-26T15:10:41.107Z,100842.16
2023-01-26T15:13:11.040Z,100833.09
2023-01-26T15:15:41.783Z,100844.53
2023-01-26T15:18:14.885Z,100834.94
2023-01-26T15:21:02.595Z,100829.97
2023-01-26T15:23:36.274Z,100821.94
2023-01-26T15:26:31.561Z,100821.81
2023-01-26T15:29:05.642Z,100822.66
2023-01-26T15:31:37.641Z,100838.94
2023-01-26T15:34:06.175Z,100835.72
2023-01-26T15:36:51.485Z,100835.97
2023-01-26T15:39:20.606Z,100834.06
2023-01-26T15:42:08.127Z,100833.84
2023-01-26T15:44:35.013Z,100813.81
2023-01-26T15:47:01.915Z,100812.28
2023-01-26T15:49:28.971Z,100820.25
2023-01-26T15:51:55.920Z,100812.97
2023-01-26T15:54:22.908Z,100808.00
2023-01-26T15:56:50.141Z,100815.75
2023-01-26T15:59:17.040Z,100829.06
2023-01-26T16:01:44.728Z,100828.66
2023-01-26T16:04:14.704Z,100824.16
2023-01-26T16:06:41.712Z,100829.88
2023-01-26T16:09:08.642Z,100817.03
2023-01-26T16:11:42.927Z,100806.81
2023-01-26T16:14:13.541Z,100794.97
2023-01-26T16:16:40.889Z,100786.91
2023-01-26T16:19:08.805Z,100788.97
2023-01-26T16:21:40.097Z,100785.75
2023-01-26T16:24:10.355Z,100784.03
2023-01-26T16:26:37.293Z,100797.91
2023-01-26T16:29:04.497Z,100788.19
2023-01-26T16:31:36.254Z,100792.41
2023-01-26T16:34:03.464Z,100793.94
2023-01-26T16:36:30.389Z,100790.63
2023-01-26T16:38:57.289Z,100795.72
2023-01-26T16:41:30.529Z,100793.56
2023-01-26T16:44:00.366Z,100790.09
2023-01-26T16:46:29.737Z,100783.38
2023-01-26T16:48:57.194Z,100787.84
2023-01-26T16:51:31.348Z,100788.88
2023-01-26T16:53:58.748Z,100797.38
2023-01-26T16:56:25.897Z,100799.34
2023-01-26T16:58:52.940Z,100811.03
2023-01-26T17:01:24.708Z,100813.44
2023-01-26T17:03:51.972Z,100805.53
2023-01-26T17:06:19.937Z,100803.53
2023-01-26T17:08:46.881Z,100819.38
2023-01-26T17:11:27.412Z,100833.97
2023-01-26T17:13:56.333Z,100824.75
2023-01-26T17:16:29.395Z,100825.03
2023-01-26T17:18:56.814Z,100820.69
2023-01-26T17:21:24.514Z,100829.56
2023-01-26T17:23:54.710Z,100844.56
2023-01-26T17:26:22.948Z,100845.50
2023-01-26T17:28:54.293Z,100832.75
2023-01-26T17:31:23.924Z,100831.66
2023-01-26T17:33:51.693Z,100826.94
2023-01-26T17:36:20.136Z,100827.59
2023-01-26T17:38:48.639Z,100827.28
2023-01-26T17:41:17.098Z,100836.44
2023-01-26T17:43:44.952Z,100855.66
2023-01-26T17:46:17.576Z,100849.56
2023-01-26T17:48:45.632Z,100844.13
2023-01-26T17:51:23.176Z,100845.44
2023-01-26T17:53:50.736Z,100852.50
2023-01-26T17:56:20.881Z,100856.00
2023-01-26T17:58:51.371Z,100853.75
2023-01-26T18:01:19.802Z,100848.16
2023-01-26T18:03:46.837Z,100845.78
2023-01-26T18:06:14.258Z,100856.28
2023-01-26T18:08:41.385Z,100855.19
2023-01-26T18:11:13.195Z,100849.38
2023-01-26T18:13:40.702Z,100854.78
2023-01-26T18:16:10.810Z,100854.84
2023-01-26T18:18:37.822Z,100861.63
2023-01-26T18:21:19.829Z,100864.16
2023-01-26T18:23:53.320Z,100875.22
2023-01-26T18:26:23.374Z,100880.44
2023-01-26T18:28:50.863Z,100876.94
2023-01-26T18:31:28.263Z,100878.09
2023-01-26T18:34:00.192Z,100878.75
2023-01-26T18:36:28.353Z,100882.63
2023-01-26T18:38:58.829Z,100882.19
2023-01-26T18:41:28.141Z,100883.09
2023-01-26T18:43:58.328Z,100881.69
2023-01-26T18:46:27.905Z,100873.69
2023-01-26T18:49:00.487Z,100873.69
2023-01-26T18:51:34.423Z,100875.56
2023-01-26T18:54:03.820Z,100873.75
2023-01-26T18:56:31.381Z,100877.88
2023-01-26T18:58:58.414Z,100886.72
2023-01-26T19:01:26.244Z,100884.00
2023-01-26T19:03:57.712Z,100883.09
2023-01-26T19:06:28.250Z,100887.81
2023-01-26T19:09:02.631Z,100887.56
2023-01-26T19:11:32.654Z,100871.22
2023-01-26T19:14:02.048Z,100884.47
2023-01-26T19:16:29.912Z,100887.56
2023-01-26T19:18:57.859Z,100873.59
2023-01-26T19:21:28.235Z,100879.66
2023-01-26T19:23:58.531Z,100877.63
2023-01-26T19:26:29.277Z,100886.09
2023-01-26T19:28:57.072Z,100884.97
2023-01-26T19:31:27.379Z,100877.81
2023-01-26T19:34:00.386Z,100888.78
2023-01-26T19:36:30.048Z,100890.09
2023-01-26T19:38:57.219Z,100889.34
2023-01-26T19:41:25.662Z,100887.69
2023-01-26T19:43:52.784Z,100882.28
2023-01-26T19:46:21.075Z,100878.88
2023-01-26T19:48:48.791Z,100874.13
2023-01-26T19:51:28.723Z,100875.06
2023-01-26T19:53:58.447Z,100871.38
2023-01-26T19:56:32.210Z,100880.28
2023-01-26T19:59:04.276Z,100874.94
2023-01-26T20:01:32.225Z,100875.56
2023-01-26T20:04:05.282Z,100886.28
2023-01-26T20:06:34.601Z,100885.88
2023-01-26T20:09:03.513Z,100878.44
2023-01-26T20:11:30.437Z,100877.56
2023-01-26T20:14:00.113Z,100874.75
2023-01-26T20:16:28.248Z,100878.22
2023-01-26T20:18:56.695Z,100879.09
2023-01-26T20:21:24.595Z,100875.91
2023-01-26T20:23:55.241Z,100879.22
2023-01-26T20:26:26.020Z,100887.59
2023-01-26T20:28:56.206Z,100880.88
2023-01-26T20:31:26.501Z,100883.69
2023-01-26T20:33:54.422Z,100883.75
2023-01-26T20:36:25.879Z,100874.34
2023-01-26T20:38:53.372Z,100881.84
2023-01-26T20:41:24.837Z,100881.19
2023-01-26T20:44:01.268Z,100878.38
2023-01-26T20:46:47.387Z,100875.91
2023-01-26T20:49:18.612Z,100877.94
2023-01-26T20:51:46.985Z,100868.28
2023-01-26T20:54:16.563Z,100878.50
2023-01-26T20:56:49.985Z,100868.63
2023-01-26T20:59:18.500Z,100869.13
2023-01-26T21:01:45.445Z,100868.22
2023-01-26T21:04:12.327Z,100865.91
2023-01-26T21:06:41.535Z,100872.22
2023-01-26T21:09:11.577Z,100863.25
2023-01-26T21:11:40.393Z,100862.81
2023-01-26T21:14:07.375Z,100867.84
2023-01-26T21:16:35.990Z,100858.72
2023-01-26T21:19:02.996Z,100858.28
2023-01-26T21:21:29.931Z,100849.88
2023-01-26T21:23:56.919Z,100856.81
2023-01-26T21:26:25.899Z,100854.84
2023-01-26T21:28:56.074Z,100842.22
2023-01-26T21:31:26.354Z,100842.03
2023-01-26T21:33:54.391Z,100845.75
2023-01-26T21:36:24.841Z,100847.50
2023-01-26T21:38:53.259Z,100839.97
2023-01-26T21:41:51.884Z,100836.16
2023-01-26T21:44:30.662Z,100839.84
2023-01-26T21:47:06.280Z,100835.69
2023-01-26T21:49:33.276Z,100834.75
2023-01-26T21:52:18.583Z,100824.59
2023-01-26T21:54:45.563Z,100812.16
2023-01-26T21:57:30.925Z,100810.13
2023-01-26T21:59:57.818Z,100814.31
2023-01-26T22:02:24.732Z,100819.19
2023-01-26T22:04:51.867Z,100808.00
2023-01-26T22:07:18.768Z,100818.75
2023-01-26T22:09:45.717Z,100822.31
2023-01-26T22:12:12.698Z,100816.06
2023-01-26T22:14:39.932Z,100806.75
2023-01-26T22:17:07.823Z,100801.19
2023-01-26T22:19:34.992Z,100801.50
2023-01-26T22:22:03.514Z,100814.09
2023-01-26T22:24:30.478Z,100812.00
2023-01-26T22:26:57.654Z,100816.69
2023-01-26T22:29:24.578Z,100817.41
2023-01-26T22:31:51.916Z,100803.91
2023-01-26T22:34:18.988Z,100799.06
2023-01-26T22:36:46.116Z,100796.56
2023-01-26T22:39:13.009Z,100789.97
2023-01-26T22:41:40.160Z,100789.34
2023-01-26T22:44:07.120Z,100799.31
2023-01-26T22:46:35.019Z,100799.44
2023-01-26T22:49:04.045Z,100799.19
2023-01-26T22:51:36.872Z,100791.66
2023-01-26T22:54:04.409Z,100796.09
2023-01-26T22:56:31.424Z,100790.47
2023-01-26T22:59:00.628Z,100793.16
2023-01-26T23:01:33.388Z,100789.22
2023-01-26T23:04:01.387Z,100795.53
2023-01-26T23:06:29.223Z,100781.66
2023-01-26T23:08:58.187Z,100784.31
2023-01-26T23:11:28.078Z,100780.34
2023-01-26T23:13:57.586Z,100774.69
2023-01-26T23:16:25.887Z,100778.38
2023-01-26T23:18:56.718Z,100776.78
2023-01-26T23:21:25.306Z,100771.00
2023-01-26T23:23:52.331Z,100772.50
2023-01-26T23:26:20.469Z,100771.16
2023-01-26T23:28:47.579Z,100774.38
2023-01-26T23:31:17.006Z,100771.50
2023-01-26T23:33:44.347Z,100764.41
2023-01-26T23:36:13.538Z,100775.34
2023-01-26T23:38:41.364Z,100771.56
2023-01-26T23:41:11.954Z,100774.72
2023-01-26T23:43:39.273Z,100772.84
2023-01-26T23:46:08.785Z,100767.22
2023-01-26T23:48:37.249Z,100762.56
2023-01-26T23:51:13.517Z,100759.06
2023-01-26T23:53:41.034Z,100759.00
2023-01-26T23:56:13.951Z,100774.13
2023-01-26T23:58:41.267Z,100767.75
